메인 페이지
METAR-TAF:

METAR-TAF

공항 :

마리스칼 수크레 국제공항

키토, 에콰도르

위도: 0-06-48S, 경도: 78-21-31W, 고도: 2400m

현재 날씨관측

예보는 18분 전, 11:00시(UTC)에 발표되었습니다.
2kt
온도 13°C
습도 94%
기압 1026 hPa
시정 10km 이상
고도 3600ft 상공 흐림

METAR: SEQM 301100Z 35002KT 9999 OVC036 13/12 Q1026 NOSIG RMK A3030

시각: 06:18 (11:18 UTC)

예보

예보는 7 시간 8분 전, 04:10시(UTC)에 발표되었습니다.
예보 대상 시간: 30일 06시부터 31일 06시까지 (UTC)
여러 방향의 바람 3kt
시정 10km 이상
고도 500ft 상공 구름 조금
고도 2000ft 상공 구름 많음
전환 중
30일 11시부터 30일 13시까지 (UTC)
고도 2600ft 상공 구름 보통
고도 30000ft 상공 구름 보통
전환 중
30일 17시부터 30일 19시까지 (UTC)
10kt
고도 3300ft 상공 구름 많음
전환 중
30일 23시부터 31일 01시까지 (UTC)
북북동5kt
고도 3000ft 상공 구름 보통

TAF: SEQM 300410Z 3006/3106 VRB03KT 9999 FEW005 BKN020 BECMG 3011/3013 SCT026 SCT300 BECMG 3017/3019 36010KT BKN033 BECMG 3023/3101 03005KT SCT030 TX23/3019Z TN11/3011Z

4,000개 이상의 공항 관측 자료 및 예보 (METAR 및 TAF 보고).

지도상에서 검색 가능한 기상관측소가 노란 점과 빨간 점으로 표시되어 있습니다.

기상관측소 명을 보려면 표시 위로 마우스를 이동하세요.

날씨 관측과 예보를 보려면 클릭하세요.

지도 변경 : 확대하려면 엑스 표시가 있는 녹색 버튼, 축소하려면 빼기 표시가 있는 녹색 버튼, 다음 페이지의 지도를 보려면 녹색 화살표를 클릭하세요.


METAR-TAF: